Time;durP1;ratioP1;P1;durP2;ratioP2;P2;SDS_P1;SDS_P2;PMS_P1;PMS_P2;Temp;Humidity;BMP_temperature;BMP_pressure;BME280_temperature;BME280_humidity;BME280_pressure;Samples;Min_cycle;Max_cycle;Signal;HPM_P1;HPM_P2
2021/12/17 00:00:28;;;;;;;36.03;14.95;;;;;;;-0.04;100.00;94787.13;2131605;27;20030;-89
2021/12/17 00:02:28;;;;;;;43.05;16.25;;;;;;;-0.03;100.00;94780.78;2129701;27;20038;-86
2021/12/17 00:04:14;;;;;;;33.05;13.98;;;;;;;-0.18;100.00;94781.19;2124674;27;20026;-90
2021/12/17 00:05:17;;;;;;;45.60;13.95;;;;;;;-0.17;100.00;94780.13;2127851;27;20029;-91
2021/12/17 00:07:29;;;;;;;33.47;13.93;;;;;;;-0.24;100.00;94785.84;2127763;27;20475;-91
2021/12/17 00:08:29;;;;;;;46.15;14.73;;;;;;;-0.14;100.00;94780.28;2124688;27;20031;-89
2021/12/17 00:09:30;;;;;;;65.13;13.95;;;;;;;-0.18;100.00;94781.19;2128253;27;20018;-88
2021/12/17 00:10:32;;;;;;;24.27;13.13;;;;;;;-0.11;100.00;94778.91;2121229;27;20106;-90
2021/12/17 00:11:33;;;;;;;42.85;13.65;;;;;;;-0.18;100.00;94779.34;2124088;27;20019;-90
2021/12/17 00:12:33;;;;;;;56.45;13.82;;;;;;;-0.14;100.00;94784.75;2123838;27;20039;-86
2021/12/17 00:13:36;;;;;;;44.95;14.90;;;;;;;0.19;100.00;94775.38;2117775;27;20062;-88
2021/12/17 00:14:38;;;;;;;80.72;14.48;;;;;;;-0.01;100.00;94782.00;2122048;27;20042;-90
2021/12/17 00:15:40;;;;;;;28.55;14.32;;;;;;;-0.07;100.00;94779.84;2124434;27;20015;-87
2021/12/17 00:16:41;;;;;;;35.38;13.25;;;;;;;-0.07;100.00;94785.09;2124024;27;20034;-86
2021/12/17 00:17:52;;;;;;;53.60;14.73;;;;;;;-0.09;100.00;94772.28;2115526;28;20023;-86
2021/12/17 00:20:30;;;;;;;23.65;12.95;;;;;;;-0.13;100.00;94776.59;2125433;27;20027;-87
2021/12/17 00:40:24;;;;;;;39.22;13.27;;;;;;;-0.09;100.00;94777.53;2125116;27;20774;-86
2021/12/17 00:46:33;;;;;;;52.50;12.40;;;;;;;-0.11;100.00;94779.69;2127026;27;20035;-88
2021/12/17 00:49:27;;;;;;;55.95;12.23;;;;;;;-0.07;100.00;94774.59;2133134;27;20432;-88
2021/12/17 00:51:56;;;;;;;27.20;12.50;;;;;;;0.15;100.00;94771.81;2125606;27;20435;-95
2021/12/17 00:52:57;;;;;;;23.27;11.32;;;;;;;-0.08;100.00;94773.81;2132830;27;20077;-90
2021/12/17 00:54:01;;;;;;;34.38;13.73;;;;;;;-0.18;100.00;94781.97;2124108;27;20487;-88
2021/12/17 00:55:04;;;;;;;31.15;12.48;;;;;;;-0.16;100.00;94779.06;2124611;27;20034;-92
2021/12/17 00:56:05;;;;;;;53.40;11.85;;;;;;;-0.06;100.00;94779.53;2123998;27;20606;-87
2021/12/17 00:57:18;;;;;;;71.22;13.63;;;;;;;-0.20;100.00;94786.00;2132698;27;20026;-88
2021/12/17 00:58:18;;;;;;;48.10;12.40;;;;;;;-0.20;100.00;94778.13;2132673;27;20019;-90
2021/12/17 00:59:19;;;;;;;28.27;11.77;;;;;;;-0.16;100.00;94779.81;2124153;27;20233;-89
2021/12/17 01:00:22;;;;;;;74.38;13.98;;;;;;;-0.12;100.00;94780.75;2123808;27;20057;-88
2021/12/17 01:01:22;;;;;;;35.78;12.40;;;;;;;-0.16;100.00;94777.19;2128236;27;20016;-88
2021/12/17 01:02:27;;;;;;;80.47;12.48;;;;;;;-0.11;100.00;94774.41;2124289;27;20570;-92
2021/12/17 01:03:28;;;;;;;30.42;12.55;;;;;;;0.00;100.00;94767.03;2115837;27;20484;-89
2021/12/17 01:04:28;;;;;;;37.20;12.50;;;;;;;-0.12;100.00;94769.47;2115988;27;20019;-88
2021/12/17 01:05:30;;;;;;;64.32;12.77;;;;;;;0.01;100.00;94763.31;2123199;27;20117;-93
2021/12/17 01:06:31;;;;;;;40.08;12.23;;;;;;;0.01;100.00;94759.91;2123959;27;20030;-91
2021/12/17 01:07:37;;;;;;;58.17;13.45;;;;;;;-0.02;100.00;94767.31;2123809;27;20027;-88
2021/12/17 01:08:38;;;;;;;60.45;12.00;;;;;;;-0.05;100.00;94759.28;2124648;27;20487;-89
2021/12/17 01:09:39;;;;;;;76.25;13.45;;;;;;;-0.08;100.00;94762.53;2120997;27;20029;-91
2021/12/17 01:10:51;;;;;;;46.13;11.63;;;;;;;-0.12;100.00;94759.75;2115289;28;20035;-89
2021/12/17 01:12:04;;;;;;;83.43;12.25;;;;;;;-0.16;100.00;94760.66;2123160;27;20488;-86
2021/12/17 01:13:09;;;;;;;28.75;11.02;;;;;;;-0.07;100.00;94761.44;2118796;27;20051;-86
2021/12/17 01:14:11;;;;;;;33.38;12.32;;;;;;;-0.09;100.00;94758.34;2126222;27;20031;-86
2021/12/17 01:15:14;;;;;;;38.10;12.45;;;;;;;-0.08;100.00;94765.94;2131944;27;20041;-86
2021/12/17 01:16:16;;;;;;;37.63;11.45;;;;;;;-0.11;100.00;94758.66;2115253;28;20024;-89
2021/12/17 01:17:19;;;;;;;35.40;11.70;;;;;;;0.09;100.00;94757.28;2114894;28;20027;-92
2021/12/17 01:18:23;;;;;;;45.58;11.88;;;;;;;0.05;100.00;94761.63;2115378;27;20023;-89
2021/12/17 01:19:44;;;;;;;93.20;12.55;;;;;;;0.06;100.00;94765.03;2115361;27;20500;-91
2021/12/17 01:21:07;;;;;;;78.10;11.70;;;;;;;0.11;100.00;94755.13;2124187;27;20037;-86
2021/12/17 01:23:58;;;;;;;90.50;12.52;;;;;;;-0.09;100.00;94767.03;2123996;27;20023;-87
2021/12/17 01:25:13;;;;;;;61.80;12.05;;;;;;;-0.06;100.00;94763.75;2124046;27;20041;-85
2021/12/17 01:35:52;;;;;;;25.10;10.73;;;;;;;-0.01;100.00;94757.56;2124188;27;20023;-89
2021/12/17 01:37:08;;;;;;;22.00;11.02;;;;;;;-0.05;100.00;94762.66;2123364;27;20062;-86
2021/12/17 01:40:33;;;;;;;26.60;11.75;;;;;;;-0.02;100.00;94764.69;2132399;27;20027;-89
2021/12/17 01:42:06;;;;;;;18.52;11.25;;;;;;;0.02;100.00;94762.22;2133111;27;20023;-89
2021/12/17 01:43:06;;;;;;;19.95;11.45;;;;;;;-0.01;100.00;94765.47;2132164;27;20491;-90
2021/12/17 01:44:09;;;;;;;19.80;11.43;;;;;;;0.04;100.00;94765.31;2123504;27;20038;-90
2021/12/17 01:45:09;;;;;;;21.15;12.00;;;;;;;-0.06;100.00;94761.13;2123813;27;20030;-87
2021/12/17 01:46:19;;;;;;;21.48;12.07;;;;;;;0.10;100.00;94763.31;2123431;27;20027;-89
2021/12/17 01:47:20;;;;;;;21.63;13.45;;;;;;;0.01;100.00;94760.69;2127300;27;20587;-88
2021/12/17 01:48:34;;;;;;;24.77;11.88;;;;;;;0.00;100.00;94761.78;2123401;27;20078;-91
2021/12/17 01:59:47;;;;;;;18.27;11.52;;;;;;;0.20;100.00;94763.78;2124106;27;20030;-88
2021/12/17 02:00:48;;;;;;;20.58;12.65;;;;;;;0.20;100.00;94758.53;2123237;27;20023;-86
2021/12/17 02:01:58;;;;;;;20.58;12.20;;;;;;;0.09;100.00;94772.28;2114853;27;20051;-89
2021/12/17 02:03:00;;;;;;;19.90;12.93;;;;;;;0.24;100.00;94756.06;2116011;27;20426;-87
2021/12/17 02:04:15;;;;;;;19.60;12.32;;;;;;;0.41;100.00;94758.69;2114534;28;20035;-90
2021/12/17 02:05:16;;;;;;;18.15;11.57;;;;;;;0.44;100.00;94755.44;2123742;27;20024;-87
2021/12/17 02:06:18;;;;;;;20.38;12.48;;;;;;;0.50;100.00;94762.06;2123302;27;20482;-89
2021/12/17 02:07:19;;;;;;;25.17;14.85;;;;;;;0.36;100.00;94761.47;2123220;27;20106;-87
2021/12/17 02:19:58;;;;;;;19.55;11.65;;;;;;;0.28;100.00;94740.44;2105027;28;20020;-87
2021/12/17 02:28:44;;;;;;;23.40;13.20;;;;;;;0.09;100.00;94740.72;2122776;28;20061;-87
2021/12/17 02:29:21;;;;;;;21.05;12.05;;;;;;;0.17;100.00;94722.31;2122603;28;20132;-88
2021/12/17 02:31:01;;;;;;;20.98;12.43;;;;;;;0.19;100.00;94719.41;2120725;28;20019;-89
2021/12/17 02:32:17;;;;;;;24.17;12.57;;;;;;;0.20;100.00;94711.19;2111785;28;20115;-85
2021/12/17 02:33:22;;;;;;;24.38;13.45;;;;;;;0.24;100.00;94716.59;2115719;28;20131;-88
2021/12/17 02:35:48;;;;;;;24.13;13.82;;;;;;;0.32;100.00;94713.19;2122588;28;20087;-88
2021/12/17 02:36:50;;;;;;;24.42;14.43;;;;;;;0.31;100.00;94716.13;2113856;28;20019;-88
2021/12/17 02:37:52;;;;;;;23.58;14.18;;;;;;;0.30;100.00;94706.69;2105484;28;20562;-87
2021/12/17 02:39:22;;;;;;;23.38;13.90;;;;;;;0.29;100.00;94708.56;2113817;28;20020;-87
2021/12/17 02:45:32;;;;;;;21.20;13.77;;;;;;;0.29;100.00;94708.56;2114352;28;20028;-87
2021/12/17 02:45:49;;;;;;;20.60;13.15;;;;;;;0.33;100.00;94708.72;2115808;28;20032;-87
2021/12/17 02:46:49;;;;;;;24.67;14.55;;;;;;;0.39;100.00;94707.47;2122035;28;20495;-88
2021/12/17 02:48:09;;;;;;;23.55;14.40;;;;;;;0.38;100.00;94711.19;2113741;28;20027;-87
2021/12/17 02:49:10;;;;;;;23.02;14.93;;;;;;;0.33;100.00;94711.34;2122459;28;20035;-88
2021/12/17 02:50:11;;;;;;;23.42;14.23;;;;;;;0.31;100.00;94711.66;2122517;28;20027;-86
2021/12/17 02:51:13;;;;;;;25.67;15.15;;;;;;;0.29;100.00;94705.94;2113699;28;21304;-90
2021/12/17 02:52:16;;;;;;;26.40;15.05;;;;;;;0.23;100.00;94705.31;2113713;28;20066;-88
2021/12/17 02:53:21;;;;;;;25.65;15.82;;;;;;;0.28;100.00;94707.03;2113640;28;20504;-87
2021/12/17 02:54:22;;;;;;;25.83;15.57;;;;;;;0.35;100.00;94706.53;2114317;28;20051;-87
2021/12/17 02:55:24;;;;;;;27.23;15.65;;;;;;;0.38;100.00;94701.44;2113321;28;20016;-86
2021/12/17 02:56:25;;;;;;;29.20;16.15;;;;;;;0.42;100.00;94702.34;2113338;28;20031;-88
2021/12/17 02:57:26;;;;;;;27.95;17.40;;;;;;;0.45;100.00;94693.84;2113286;28;20055;-88
2021/12/17 02:58:29;;;;;;;27.23;16.20;;;;;;;0.36;100.00;94693.09;2113579;28;20102;-87
2021/12/17 02:59:32;;;;;;;25.90;16.67;;;;;;;0.31;100.00;94690.63;2113849;28;20449;-88
2021/12/17 03:00:35;;;;;;;27.60;15.75;;;;;;;0.39;100.00;94695.06;2113730;28;20024;-89
2021/12/17 03:01:35;;;;;;;29.42;16.42;;;;;;;0.39;100.00;94692.44;2113647;28;20059;-87
2021/12/17 03:02:38;;;;;;;30.80;17.83;;;;;;;0.36;100.00;94700.22;2113561;28;20439;-88
2021/12/17 03:03:40;;;;;;;28.30;16.38;;;;;;;0.28;100.00;94699.13;2113892;28;20028;-86
2021/12/17 03:04:41;;;;;;;27.55;16.77;;;;;;;0.30;100.00;94696.94;2121872;28;20045;-86
2021/12/17 03:05:42;;;;;;;29.63;16.60;;;;;;;0.26;100.00;94701.28;2113679;28;20020;-87
2021/12/17 03:06:58;;;;;;;53.67;16.63;;;;;;;0.35;100.00;94703.91;2113258;28;20495;-86
2021/12/17 03:07:59;;;;;;;28.75;17.13;;;;;;;0.29;100.00;94703.28;2113142;28;20468;-87
2021/12/17 03:08:59;;;;;;;33.08;15.32;;;;;;;0.29;100.00;94695.41;2104421;28;20128;-87
2021/12/17 03:10:05;;;;;;;34.90;16.75;;;;;;;0.36;100.00;94702.84;2113180;28;20580;-85
2021/12/17 03:11:05;;;;;;;25.85;15.73;;;;;;;0.52;100.00;94700.47;2113865;28;20035;-87
2021/12/17 03:12:25;;;;;;;35.78;17.00;;;;;;;0.37;100.00;94699.13;2113438;28;20023;-88
2021/12/17 03:13:27;;;;;;;54.13;17.38;;;;;;;0.44;100.00;94691.50;2115892;28;20095;-88
2021/12/17 03:14:29;;;;;;;35.10;15.60;;;;;;;0.41;100.00;94698.19;2105050;28;20040;-87
2021/12/17 03:15:45;;;;;;;52.47;16.17;;;;;;;0.40;100.00;94696.66;2105079;28;20039;-87
2021/12/17 03:16:57;;;;;;;36.42;15.95;;;;;;;0.39;100.00;94705.59;2106994;28;20106;-87
2021/12/17 03:23:25;;;;;;;29.50;15.35;;;;;;;0.44;100.00;94699.41;2121145;28;20083;-88
2021/12/17 03:23:28;;;;;;;;;;;;;;;0.38;100.00;94703.28;2110849;28;20031;-87
2021/12/17 03:24:28;;;;;;;41.53;14.85;;;;;;;0.41;100.00;94708.69;2107594;28;19908;-89
2021/12/17 03:25:31;;;;;;;74.53;14.90;;;;;;;0.70;100.00;94710.69;2099202;28;20024;-87
2021/12/17 03:26:35;;;;;;;50.15;15.15;;;;;;;0.65;100.00;94702.91;2113250;28;20092;-88
2021/12/17 03:27:50;;;;;;;46.75;15.38;;;;;;;0.70;100.00;94705.41;2107351;28;20093;-88
2021/12/17 03:28:53;;;;;;;53.35;15.10;;;;;;;0.74;100.00;94702.91;2101379;28;20032;-88
2021/12/17 03:29:54;;;;;;;29.10;16.67;;;;;;;0.64;100.00;94696.13;2099748;28;20024;-89
2021/12/17 03:30:55;;;;;;;91.68;16.55;;;;;;;0.55;100.00;94695.38;2099011;28;20470;-88
2021/12/17 03:31:55;;;;;;;160.95;16.95;;;;;;;0.45;100.00;94693.06;2099143;28;20058;-87
2021/12/17 03:32:56;;;;;;;70.68;16.45;;;;;;;0.44;100.00;94688.88;2099309;28;20052;-86
2021/12/17 03:34:17;;;;;;;72.30;17.55;;;;;;;0.45;100.00;94696.47;2098972;28;20024;-87
2021/12/17 03:35:18;;;;;;;57.50;16.13;;;;;;;0.49;100.00;94686.09;2101579;28;20039;-87
2021/12/17 03:36:19;;;;;;;59.45;16.17;;;;;;;0.57;100.00;94690.59;2099339;28;20060;-87
2021/12/17 03:37:20;;;;;;;81.85;16.52;;;;;;;0.52;100.00;94690.72;2099159;28;20044;-88
2021/12/17 03:38:21;;;;;;;110.72;16.63;;;;;;;0.60;100.00;94692.56;2090645;28;20115;-87
2021/12/17 03:39:26;;;;;;;88.75;17.20;;;;;;;0.49;100.00;94689.50;2099225;28;20021;-87
2021/12/17 03:40:28;;;;;;;29.70;15.02;;;;;;;0.54;100.00;94685.94;2100011;28;20032;-89
2021/12/17 03:41:36;;;;;;;98.90;18.55;;;;;;;0.57;100.00;94679.25;2099163;28;20416;-87
2021/12/17 03:42:37;;;;;;;77.40;16.33;;;;;;;0.48;100.00;94682.72;2099941;28;20083;-88
2021/12/17 03:43:38;;;;;;;114.75;17.00;;;;;;;0.47;100.00;94688.25;2099411;28;20025;-87
2021/12/17 03:44:38;;;;;;;62.10;17.45;;;;;;;0.41;100.00;94690.28;2099232;28;20158;-86
2021/12/17 03:45:41;;;;;;;88.07;16.67;;;;;;;0.49;100.00;94692.16;2099208;28;20021;-87
2021/12/17 03:46:44;;;;;;;127.85;18.17;;;;;;;0.45;100.00;94685.97;2099445;28;20029;-88
2021/12/17 03:47:45;;;;;;;119.53;17.10;;;;;;;0.49;100.00;94702.66;2099028;28;20119;-86
2021/12/17 03:49:06;;;;;;;130.25;17.75;;;;;;;0.43;100.00;94697.88;2099238;28;20025;-86
2021/12/17 03:50:07;;;;;;;141.10;16.45;;;;;;;0.48;100.00;94692.44;2102249;28;20124;-88
2021/12/17 03:51:13;;;;;;;128.80;18.50;;;;;;;0.49;100.00;94694.00;2102857;28;20365;-87
2021/12/17 03:52:16;;;;;;;72.82;16.88;;;;;;;0.47;100.00;94688.25;2108413;28;20028;-86
2021/12/17 03:53:16;;;;;;;77.95;16.88;;;;;;;0.46;100.00;94686.72;2107527;28;20062;-87
2021/12/17 03:54:18;;;;;;;101.13;16.75;;;;;;;0.48;100.00;94685.34;2107351;28;20020;-87
2021/12/17 03:55:18;;;;;;;81.43;16.85;;;;;;;0.49;100.00;94691.38;2107590;28;20028;-87
2021/12/17 03:56:19;;;;;;;64.40;15.55;;;;;;;0.42;100.00;94701.59;2107515;28;20114;-87
2021/12/17 03:57:21;;;;;;;153.20;17.63;;;;;;;0.43;100.00;94697.88;2109600;28;20024;-88
2021/12/17 03:58:21;;;;;;;191.55;18.42;;;;;;;0.46;100.00;94694.63;2107117;28;20062;-86
2021/12/17 03:59:22;;;;;;;116.38;18.75;;;;;;;0.55;100.00;94692.75;2111716;28;20015;-88
2021/12/17 04:00:22;;;;;;;49.58;16.17;;;;;;;0.63;100.00;94691.94;2107578;28;20023;-89
2021/12/17 04:01:26;;;;;;;134.73;18.70;;;;;;;0.52;100.00;94690.72;2107225;28;20103;-85
2021/12/17 04:02:26;;;;;;;138.63;16.48;;;;;;;0.55;100.00;94691.97;2107802;28;20496;-89
2021/12/17 04:03:27;;;;;;;164.32;17.08;;;;;;;0.58;100.00;94684.22;2111946;28;20051;-86
2021/12/17 04:04:27;;;;;;;96.07;17.67;;;;;;;0.57;100.00;94689.78;2107613;28;20024;-88
2021/12/17 04:05:28;;;;;;;207.65;16.92;;;;;;;0.57;100.00;94684.53;2099151;28;20067;-89
2021/12/17 04:06:28;;;;;;;71.05;16.25;;;;;;;0.59;100.00;94687.63;2099054;28;20636;-88
2021/12/17 04:07:29;;;;;;;75.07;16.05;;;;;;;0.55;100.00;94687.47;2107088;28;20058;-87
2021/12/17 04:08:30;;;;;;;119.35;16.58;;;;;;;0.49;100.00;94686.09;2107492;28;20032;-88
2021/12/17 04:09:37;;;;;;;112.68;16.10;;;;;;;0.58;100.00;94683.47;2098680;28;20120;-90
2021/12/17 04:10:43;;;;;;;144.63;16.38;;;;;;;0.50;100.00;94688.41;2099600;28;20020;-88
2021/12/17 04:11:43;;;;;;;105.35;16.05;;;;;;;0.55;100.00;94684.06;2099544;28;20028;-90
2021/12/17 04:13:56;;;;;;;112.03;16.02;;;;;;;0.44;100.00;94679.16;2107263;28;20024;-87
2021/12/17 04:14:57;;;;;;;138.15;16.27;;;;;;;0.47;100.00;94683.00;2107451;28;20031;-87
2021/12/17 04:16:07;;;;;;;99.35;15.63;;;;;;;0.51;100.00;94683.94;2099078;28;20035;-90
2021/12/17 04:17:08;;;;;;;142.00;17.35;;;;;;;0.45;100.00;94685.19;2099841;28;20032;-87
2021/12/17 04:18:10;;;;;;;128.07;16.58;;;;;;;0.42;100.00;94678.69;2104148;28;20047;-87
2021/12/17 04:19:10;;;;;;;46.28;15.98;;;;;;;0.43;100.00;94682.09;2107107;28;20031;-87
2021/12/17 04:20:11;;;;;;;150.32;16.90;;;;;;;0.57;100.00;94687.94;2098636;28;20075;-87
2021/12/17 04:21:15;;;;;;;185.68;16.98;;;;;;;0.50;100.00;94680.53;2103381;28;20088;-85
2021/12/17 04:22:16;;;;;;;160.63;16.00;;;;;;;0.60;100.00;94681.28;2107328;28;20092;-89
2021/12/17 04:23:16;;;;;;;121.18;15.18;;;;;;;0.65;100.00;94684.50;2115693;28;20023;-88
2021/12/17 04:24:17;;;;;;;44.42;15.23;;;;;;;0.64;100.00;94685.59;2115762;28;20024;-88
2021/12/17 04:25:18;;;;;;;77.20;15.52;;;;;;;0.62;100.00;94679.88;2107244;28;20043;-87
2021/12/17 04:26:18;;;;;;;72.28;15.13;;;;;;;0.65;100.00;94678.47;2115431;28;20098;-89
2021/12/17 04:27:19;;;;;;;143.40;14.73;;;;;;;0.60;100.00;94684.69;2107078;28;20020;-87
2021/12/17 04:28:20;;;;;;;53.92;14.30;;;;;;;0.62;100.00;94684.38;2107116;28;20051;-88
2021/12/17 04:29:22;;;;;;;93.70;14.38;;;;;;;0.56;100.00;94690.88;2107101;28;20055;-87
2021/12/17 04:30:31;;;;;;;75.35;14.38;;;;;;;0.54;100.00;94685.94;2099168;28;20020;-87
2021/12/17 04:31:31;;;;;;;81.45;14.38;;;;;;;0.62;100.00;94682.53;2099908;28;20024;-87
2021/12/17 04:32:32;;;;;;;123.75;14.98;;;;;;;0.60;100.00;94687.31;2103329;28;20020;-88
2021/12/17 04:33:33;;;;;;;117.97;14.80;;;;;;;0.54;100.00;94691.19;2107144;28;20020;-87
2021/12/17 04:34:33;;;;;;;71.13;13.40;;;;;;;0.57;100.00;94687.94;2107258;28;20068;-88
2021/12/17 04:35:34;;;;;;;146.40;15.45;;;;;;;0.61;100.00;94688.06;2107223;28;20023;-86
2021/12/17 04:36:36;;;;;;;103.00;15.07;;;;;;;0.63;100.00;94683.28;2106958;28;20016;-89
2021/12/17 04:37:37;;;;;;;63.42;12.68;;;;;;;0.73;100.00;94693.47;2107238;28;20023;-87
2021/12/17 04:38:38;;;;;;;88.68;13.15;;;;;;;0.80;100.00;94685.09;2107171;28;20029;-89
2021/12/17 04:39:39;;;;;;;101.47;15.48;;;;;;;0.81;100.00;94684.78;2115566;28;20028;-87
2021/12/17 04:40:43;;;;;;;117.70;14.70;;;;;;;0.73;100.00;94688.22;2107448;28;20389;-87
2021/12/17 04:43:10;;;;;;;44.08;12.88;;;;;;;0.75;100.00;94691.31;2107259;28;20066;-88
2021/12/17 04:44:23;;;;;;;30.50;13.05;;;;;;;0.78;100.00;94685.41;2106966;28;20031;-88
2021/12/17 04:45:24;;;;;;;49.00;13.25;;;;;;;0.71;100.00;94693.78;2100127;28;20021;-87
2021/12/17 04:46:53;;;;;;;64.57;14.13;;;;;;;0.77;100.00;94691.00;2098857;28;20523;-88
2021/12/17 04:58:23;;;;;;;50.45;12.77;;;;;;;0.73;100.00;94701.38;2111785;28;20078;-88
2021/12/17 04:59:23;;;;;;;48.13;12.60;;;;;;;0.66;100.00;94696.59;2115383;28;20066;-87
2021/12/17 05:00:27;;;;;;;111.10;14.10;;;;;;;0.74;100.00;94693.16;2106954;28;20031;-88
2021/12/17 05:01:28;;;;;;;378.23;237.55;;;;;;;0.65;100.00;94697.66;2111799;28;20023;-87
2021/12/17 05:02:30;;;;;;;564.45;276.10;;;;;;;0.73;100.00;94704.75;2106866;28;20102;-88
2021/12/17 05:03:31;;;;;;;150.88;49.92;;;;;;;0.91;100.00;94696.81;2106987;28;20056;-86
2021/12/17 05:04:31;;;;;;;138.82;37.13;;;;;;;0.85;100.00;94698.09;2106342;28;20024;-87
2021/12/17 05:05:35;;;;;;;194.15;46.10;;;;;;;0.88;100.00;94692.97;2104039;28;20102;-88
2021/12/17 05:06:39;;;;;;;93.82;26.98;;;;;;;0.93;100.00;94694.66;2104926;28;20435;-87
2021/12/17 05:07:45;;;;;;;104.18;18.50;;;;;;;0.82;100.00;94699.47;2107279;28;20035;-89
2021/12/17 05:08:54;;;;;;;64.07;15.02;;;;;;;0.78;100.00;94697.78;2107413;28;20082;-86
2021/12/17 05:10:27;;;;;;;123.97;14.27;;;;;;;0.70;100.00;94701.97;2107415;28;20146;-87
2021/12/17 05:18:13;;;;;;;84.10;12.60;;;;;;;0.79;100.00;94704.59;2103302;28;20023;-85
2021/12/17 05:19:41;;;;;;;128.43;13.10;;;;;;;0.92;100.00;94703.63;2106003;28;20026;-87
2021/12/17 05:20:49;;;;;;;52.30;13.35;;;;;;;0.88;100.00;94706.13;2108448;28;20020;-86
2021/12/17 05:21:50;;;;;;;106.13;12.90;;;;;;;0.89;100.00;94707.66;2106858;28;20028;-87
2021/12/17 05:22:56;;;;;;;144.88;25.75;;;;;;;0.83;100.00;94698.38;2098677;28;20552;-88
2021/12/17 05:23:56;;;;;;;251.10;76.22;;;;;;;0.75;100.00;94692.09;2099614;28;20027;-86
2021/12/17 05:24:57;;;;;;;170.55;41.95;;;;;;;0.81;100.00;94694.53;2107047;28;20107;-87
2021/12/17 05:26:05;;;;;;;123.25;22.95;;;;;;;0.85;100.00;94701.50;2098621;28;20033;-87
2021/12/17 05:27:06;;;;;;;141.73;13.95;;;;;;;0.93;100.00;94697.28;2099569;28;20397;-87
2021/12/17 05:28:06;;;;;;;144.68;15.32;;;;;;;0.84;100.00;94699.94;2098506;28;20035;-87
2021/12/17 05:29:07;;;;;;;148.45;14.25;;;;;;;0.88;100.00;94702.72;2100259;28;20023;-87
2021/12/17 05:30:08;;;;;;;78.65;13.80;;;;;;;0.83;100.00;94705.50;2107292;28;20059;-86
2021/12/17 05:31:09;;;;;;;62.65;12.80;;;;;;;0.80;100.00;94704.28;2102915;28;20461;-88
2021/12/17 05:32:09;;;;;;;130.50;12.82;;;;;;;0.88;100.00;94714.03;2104182;28;20039;-88
2021/12/17 05:33:14;;;;;;;43.33;12.23;;;;;;;0.93;100.00;94707.81;2094731;28;20044;-87
2021/12/17 05:34:15;;;;;;;84.47;12.07;;;;;;;0.83;100.00;94714.19;2104364;28;20108;-87
2021/12/17 05:35:15;;;;;;;84.63;13.95;;;;;;;0.80;100.00;94717.47;2099028;28;20031;-88
2021/12/17 05:36:16;;;;;;;44.03;11.55;;;;;;;0.87;100.00;94717.72;2104985;28;20698;-87
2021/12/17 05:37:16;;;;;;;120.45;13.70;;;;;;;0.82;100.00;94714.50;2096941;28;20048;-88
2021/12/17 05:38:19;;;;;;;70.90;13.10;;;;;;;0.87;100.00;94716.97;2112183;28;20060;-88
2021/12/17 05:39:19;;;;;;;36.53;12.85;;;;;;;0.82;100.00;94720.53;2114222;28;20213;-87
2021/12/17 05:40:20;;;;;;;55.30;13.43;;;;;;;0.74;100.00;94721.31;2105006;28;20067;-89
2021/12/17 05:41:21;;;;;;;50.92;12.68;;;;;;;0.72;100.00;94719.00;2105122;28;20028;-88
2021/12/17 05:42:22;;;;;;;72.25;12.77;;;;;;;0.80;100.00;94720.09;2109595;28;20020;-86
2021/12/17 05:43:23;;;;;;;73.75;13.38;;;;;;;0.97;100.00;94708.75;2101465;28;20563;-86
2021/12/17 05:44:24;;;;;;;62.42;13.00;;;;;;;0.92;100.00;94707.06;2097091;28;20028;-86
2021/12/17 05:45:48;;;;;;;35.38;12.40;;;;;;;0.89;100.00;94701.63;2114031;28;20427;-89
2021/12/17 05:46:49;;;;;;;36.67;11.52;;;;;;;0.78;100.00;94698.56;2100383;28;20124;-86
2021/12/17 05:47:50;;;;;;;42.88;12.25;;;;;;;0.79;100.00;94700.13;2097236;28;20368;-89
2021/12/17 05:48:50;;;;;;;48.28;12.43;;;;;;;0.97;100.00;94698.22;2105166;28;20054;-87
2021/12/17 05:49:51;;;;;;;44.70;12.85;;;;;;;1.05;100.00;94696.59;2097748;28;20032;-87
2021/12/17 05:51:03;;;;;;;49.78;12.90;;;;;;;1.07;100.00;94700.47;2103735;28;20089;-86
2021/12/17 05:52:04;;;;;;;53.40;11.80;;;;;;;1.20;100.00;94698.72;2093562;28;20069;-87
2021/12/17 05:53:05;;;;;;;29.00;12.15;;;;;;;1.06;100.00;94698.94;2103816;28;20667;-87
2021/12/17 05:54:08;;;;;;;39.17;12.25;;;;;;;0.92;100.00;94698.34;2107679;28;20118;-87
2021/12/17 05:55:11;;;;;;;21.23;11.52;;;;;;;0.92;100.00;94703.63;2105101;28;20028;-86
2021/12/17 05:56:12;;;;;;;43.40;12.27;;;;;;;0.97;100.00;94711.38;2106282;28;20118;-87
2021/12/17 05:57:13;;;;;;;31.52;12.38;;;;;;;0.92;100.00;94706.25;2108705;28;20077;-89
2021/12/17 05:58:15;;;;;;;42.58;10.98;;;;;;;1.06;100.00;94709.47;2106090;28;20882;-87
2021/12/17 05:59:15;;;;;;;22.63;12.15;;;;;;;1.07;100.00;94704.97;2098817;28;20421;-87
2021/12/17 06:00:16;;;;;;;55.00;11.68;;;;;;;1.16;100.00;94717.03;2096091;28;20019;-86
2021/12/17 06:01:17;;;;;;;34.88;10.95;;;;;;;1.16;100.00;94710.97;2102851;28;20078;-86
2021/12/17 06:02:19;;;;;;;39.58;12.13;;;;;;;1.15;100.00;94710.22;2095727;28;20447;-87
2021/12/17 06:03:20;;;;;;;62.08;11.25;;;;;;;1.16;100.00;94714.38;2097214;28;20764;-87
2021/12/17 06:04:21;;;;;;;109.68;12.70;;;;;;;1.15;100.00;94706.81;2099736;28;20028;-88
2021/12/17 06:05:22;;;;;;;74.78;12.18;;;;;;;0.96;100.00;94709.81;2097519;28;20449;-89
2021/12/17 06:06:33;;;;;;;38.75;11.52;;;;;;;0.91;100.00;94710.75;2101642;28;20019;-87
2021/12/17 06:07:34;;;;;;;27.67;11.13;;;;;;;1.03;100.00;94706.69;2107814;28;20030;-88
2021/12/17 06:08:34;;;;;;;90.88;11.20;;;;;;;1.04;100.00;94698.47;2105949;28;20038;-88
2021/12/17 06:09:35;;;;;;;37.55;10.73;;;;;;;0.99;100.00;94701.28;2104279;28;20078;-86
2021/12/17 06:10:36;;;;;;;39.22;11.93;;;;;;;0.95;100.00;94693.25;2099566;28;20021;-89
2021/12/17 06:11:36;;;;;;;51.33;11.88;;;;;;;0.92;100.00;94698.34;2105734;28;20035;-86
2021/12/17 06:12:38;;;;;;;51.75;11.35;;;;;;;0.95;100.00;94703.00;2111985;28;20087;-89
2021/12/17 06:13:39;;;;;;;35.20;11.30;;;;;;;0.95;100.00;94703.00;2106068;28;20028;-88
2021/12/17 06:14:40;;;;;;;42.67;11.68;;;;;;;0.91;100.00;94700.22;2114486;28;20447;-88
2021/12/17 06:15:41;;;;;;;28.15;12.68;;;;;;;0.92;100.00;94701.00;2114685;28;20353;-88
2021/12/17 06:16:41;;;;;;;56.70;12.40;;;;;;;0.99;100.00;94701.28;2106151;28;20035;-88
2021/12/17 06:17:42;;;;;;;55.22;13.18;;;;;;;1.14;100.00;94699.97;2106025;28;20099;-88
2021/12/17 06:18:43;;;;;;;47.38;12.90;;;;;;;1.08;100.00;94696.00;2105769;28;20031;-87
2021/12/17 06:19:43;;;;;;;97.00;13.48;;;;;;;1.10;100.00;94699.88;2114192;28;20495;-88
2021/12/17 06:20:44;;;;;;;108.70;12.60;;;;;;;0.98;100.00;94695.25;2105484;28;20106;-88
2021/12/17 06:21:44;;;;;;;68.63;13.32;;;;;;;0.98;100.00;94691.84;2105937;28;20246;-87
2021/12/17 06:22:48;;;;;;;100.60;12.95;;;;;;;0.90;100.00;94698.69;2105619;28;20020;-88
2021/12/17 06:23:48;;;;;;;53.83;13.45;;;;;;;0.95;100.00;94695.09;2106141;28;20035;-89
2021/12/17 06:24:52;;;;;;;58.47;12.13;;;;;;;1.04;100.00;94695.84;2114428;28;20062;-88
2021/12/17 06:25:52;;;;;;;26.55;12.68;;;;;;;1.06;100.00;94692.91;2114325;28;20015;-89
2021/12/17 06:26:55;;;;;;;63.92;12.30;;;;;;;0.94;100.00;94688.31;2105970;28;20036;-88
2021/12/17 06:28:02;;;;;;;42.45;13.80;;;;;;;0.94;100.00;94699.59;2105960;28;20034;-87
2021/12/17 06:29:03;;;;;;;32.92;11.20;;;;;;;0.96;100.00;94694.00;2098464;28;20024;-87
2021/12/17 06:30:11;;;;;;;37.05;11.60;;;;;;;0.90;100.00;94693.41;2102521;28;20524;-87
2021/12/17 06:31:15;;;;;;;23.42;10.90;;;;;;;0.90;100.00;94698.69;2114609;28;20110;-86
2021/12/17 06:32:17;;;;;;;27.77;11.23;;;;;;;0.96;100.00;94705.31;2107015;28;20031;-88
2021/12/17 06:33:18;;;;;;;22.75;11.02;;;;;;;1.01;100.00;94709.66;2106520;28;20016;-88
2021/12/17 06:34:21;;;;;;;27.58;11.63;;;;;;;0.90;100.00;94708.44;2106375;28;20043;-86
2021/12/17 06:35:23;;;;;;;15.98;10.45;;;;;;;1.11;100.00;94711.16;2105809;28;20040;-88
2021/12/17 06:36:25;;;;;;;17.92;9.32;;;;;;;1.12;100.00;94699.53;2106166;28;20020;-89